sensor_id;sensor_type;location;lat;lon;timestamp;temperature;humidity
8188;DHT22;4135;49.184;9.722;2022-09-03T00:02:11;19.60;49.40
8188;DHT22;4135;49.184;9.722;2022-09-03T00:05:12;19.60;49.60
8188;DHT22;4135;49.184;9.722;2022-09-03T00:10:45;19.60;49.60
8188;DHT22;4135;49.184;9.722;2022-09-03T00:13:50;19.60;49.70
8188;DHT22;4135;49.184;9.722;2022-09-03T00:16:23;19.60;49.70
8188;DHT22;4135;49.184;9.722;2022-09-03T00:19:01;19.50;49.80
8188;DHT22;4135;49.184;9.722;2022-09-03T00:21:42;19.50;49.80
8188;DHT22;4135;49.184;9.722;2022-09-03T00:24:15;19.50;49.90
8188;DHT22;4135;49.184;9.722;2022-09-03T00:26:49;19.50;50.00
8188;DHT22;4135;49.184;9.722;2022-09-03T00:29:32;19.50;50.00
8188;DHT22;4135;49.184;9.722;2022-09-03T00:35:13;19.50;50.10
8188;DHT22;4135;49.184;9.722;2022-09-03T00:37:45;19.50;50.20
8188;DHT22;4135;49.184;9.722;2022-09-03T00:43:19;19.40;50.30
8188;DHT22;4135;49.184;9.722;2022-09-03T00:54:58;19.40;50.60
8188;DHT22;4135;49.184;9.722;2022-09-03T01:00:43;19.30;50.60
8188;DHT22;4135;49.184;9.722;2022-09-03T01:03:25;19.30;50.70
8188;DHT22;4135;49.184;9.722;2022-09-03T01:06:09;19.30;50.80
8188;DHT22;4135;49.184;9.722;2022-09-03T01:09:37;19.30;50.90
8188;DHT22;4135;49.184;9.722;2022-09-03T01:17:39;19.20;51.00
8188;DHT22;4135;49.184;9.722;2022-09-03T01:20:31;19.20;51.10
8188;DHT22;4135;49.184;9.722;2022-09-03T01:23:27;19.20;51.10
8188;DHT22;4135;49.184;9.722;2022-09-03T01:26:09;19.20;51.20
8188;DHT22;4135;49.184;9.722;2022-09-03T01:34:20;19.20;51.30
8188;DHT22;4135;49.184;9.722;2022-09-03T01:39:51;19.20;51.40
8188;DHT22;4135;49.184;9.722;2022-09-03T01:42:32;19.10;51.40
8188;DHT22;4135;49.184;9.722;2022-09-03T01:48:13;19.10;51.60
8188;DHT22;4135;49.184;9.722;2022-09-03T01:50:57;19.10;51.60
8188;DHT22;4135;49.184;9.722;2022-09-03T01:53:37;19.10;51.60
8188;DHT22;4135;49.184;9.722;2022-09-03T01:56:32;19.10;51.70
8188;DHT22;4135;49.184;9.722;2022-09-03T01:59:28;19.10;51.80
8188;DHT22;4135;49.184;9.722;2022-09-03T02:02:15;19.10;51.90
8188;DHT22;4135;49.184;9.722;2022-09-03T02:05:00;19.10;52.00
8188;DHT22;4135;49.184;9.722;2022-09-03T02:07:33;19.10;52.00
8188;DHT22;4135;49.184;9.722;2022-09-03T02:10:06;19.10;52.20
8188;DHT22;4135;49.184;9.722;2022-09-03T02:12:38;19.00;52.20
8188;DHT22;4135;49.184;9.722;2022-09-03T02:15:13;19.00;52.20
8188;DHT22;4135;49.184;9.722;2022-09-03T02:17:44;19.00;52.30
8188;DHT22;4135;49.184;9.722;2022-09-03T02:20:19;19.00;52.40
8188;DHT22;4135;49.184;9.722;2022-09-03T02:22:49;19.00;52.50
8188;DHT22;4135;49.184;9.722;2022-09-03T02:25:21;19.00;52.60
8188;DHT22;4135;49.184;9.722;2022-09-03T02:27:52;18.90;52.70
8188;DHT22;4135;49.184;9.722;2022-09-03T02:30:21;18.90;52.80
8188;DHT22;4135;49.184;9.722;2022-09-03T02:32:51;18.90;52.80
8188;DHT22;4135;49.184;9.722;2022-09-03T02:35:20;18.90;52.90
8188;DHT22;4135;49.184;9.722;2022-09-03T02:37:50;18.90;53.00
8188;DHT22;4135;49.184;9.722;2022-09-03T02:40:20;18.80;53.00
8188;DHT22;4135;49.184;9.722;2022-09-03T02:42:49;18.90;53.10
8188;DHT22;4135;49.184;9.722;2022-09-03T02:45:27;18.90;53.10
8188;DHT22;4135;49.184;9.722;2022-09-03T02:47:59;18.90;53.20
8188;DHT22;4135;49.184;9.722;2022-09-03T02:50:29;18.90;53.20
8188;DHT22;4135;49.184;9.722;2022-09-03T02:52:58;18.90;53.20
8188;DHT22;4135;49.184;9.722;2022-09-03T02:55:28;18.90;53.30
8188;DHT22;4135;49.184;9.722;2022-09-03T02:57:57;18.90;53.30
8188;DHT22;4135;49.184;9.722;2022-09-03T03:00:28;18.90;53.30
8188;DHT22;4135;49.184;9.722;2022-09-03T03:02:58;18.80;53.30
8188;DHT22;4135;49.184;9.722;2022-09-03T03:05:47;18.80;53.40
8188;DHT22;4135;49.184;9.722;2022-09-03T03:08:18;18.80;53.50
8188;DHT22;4135;49.184;9.722;2022-09-03T03:10:51;18.80;53.60
8188;DHT22;4135;49.184;9.722;2022-09-03T03:13:22;18.80;53.60
8188;DHT22;4135;49.184;9.722;2022-09-03T03:15:55;18.70;53.60
8188;DHT22;4135;49.184;9.722;2022-09-03T03:18:25;18.80;53.70
8188;DHT22;4135;49.184;9.722;2022-09-03T03:20:54;18.70;53.70
8188;DHT22;4135;49.184;9.722;2022-09-03T03:23:24;18.70;53.80
8188;DHT22;4135;49.184;9.722;2022-09-03T03:26:03;18.70;53.90
8188;DHT22;4135;49.184;9.722;2022-09-03T03:28:33;18.60;53.90
8188;DHT22;4135;49.184;9.722;2022-09-03T03:31:12;18.70;53.90
8188;DHT22;4135;49.184;9.722;2022-09-03T03:33:42;18.70;54.00
8188;DHT22;4135;49.184;9.722;2022-09-03T03:36:13;18.60;53.90
8188;DHT22;4135;49.184;9.722;2022-09-03T03:38:44;18.60;54.10
8188;DHT22;4135;49.184;9.722;2022-09-03T03:41:17;18.60;54.20
8188;DHT22;4135;49.184;9.722;2022-09-03T03:43:47;18.60;54.20
8188;DHT22;4135;49.184;9.722;2022-09-03T03:46:17;18.60;54.20
8188;DHT22;4135;49.184;9.722;2022-09-03T03:48:47;18.60;54.20
8188;DHT22;4135;49.184;9.722;2022-09-03T03:51:17;18.60;54.30
8188;DHT22;4135;49.184;9.722;2022-09-03T03:53:47;18.60;54.40
8188;DHT22;4135;49.184;9.722;2022-09-03T03:56:17;18.60;54.40
8188;DHT22;4135;49.184;9.722;2022-09-03T03:58:46;18.60;54.40
8188;DHT22;4135;49.184;9.722;2022-09-03T04:01:19;18.50;54.40
8188;DHT22;4135;49.184;9.722;2022-09-03T04:03:49;18.50;54.40
8188;DHT22;4135;49.184;9.722;2022-09-03T04:06:19;18.60;54.50
8188;DHT22;4135;49.184;9.722;2022-09-03T04:08:49;18.50;54.50
8188;DHT22;4135;49.184;9.722;2022-09-03T04:11:21;18.60;54.70
8188;DHT22;4135;49.184;9.722;2022-09-03T04:13:51;18.50;54.60
8188;DHT22;4135;49.184;9.722;2022-09-03T04:16:26;18.50;54.70
8188;DHT22;4135;49.184;9.722;2022-09-03T04:18:56;18.50;54.70
8188;DHT22;4135;49.184;9.722;2022-09-03T04:21:27;18.50;54.80
8188;DHT22;4135;49.184;9.722;2022-09-03T04:23:57;18.50;54.80
8188;DHT22;4135;49.184;9.722;2022-09-03T04:26:29;18.50;55.00
8188;DHT22;4135;49.184;9.722;2022-09-03T04:29:02;18.40;55.00
8188;DHT22;4135;49.184;9.722;2022-09-03T04:31:32;18.40;55.00
8188;DHT22;4135;49.184;9.722;2022-09-03T04:34:03;18.40;55.00
8188;DHT22;4135;49.184;9.722;2022-09-03T04:36:35;18.40;55.10
8188;DHT22;4135;49.184;9.722;2022-09-03T04:39:05;18.50;55.20
8188;DHT22;4135;49.184;9.722;2022-09-03T04:41:35;18.40;55.30
8188;DHT22;4135;49.184;9.722;2022-09-03T04:44:05;18.40;55.30
8188;DHT22;4135;49.184;9.722;2022-09-03T04:46:34;18.40;55.30
8188;DHT22;4135;49.184;9.722;2022-09-03T04:49:04;18.40;55.40
8188;DHT22;4135;49.184;9.722;2022-09-03T04:51:35;18.40;55.50
8188;DHT22;4135;49.184;9.722;2022-09-03T04:54:06;18.40;55.50
8188;DHT22;4135;49.184;9.722;2022-09-03T04:56:38;18.40;55.50
8188;DHT22;4135;49.184;9.722;2022-09-03T04:59:08;18.40;55.60
8188;DHT22;4135;49.184;9.722;2022-09-03T05:01:39;18.40;55.60
8188;DHT22;4135;49.184;9.722;2022-09-03T05:04:08;18.40;55.70
8188;DHT22;4135;49.184;9.722;2022-09-03T05:06:38;18.40;55.70
8188;DHT22;4135;49.184;9.722;2022-09-03T05:09:07;18.30;55.70
8188;DHT22;4135;49.184;9.722;2022-09-03T05:11:37;18.30;55.80
8188;DHT22;4135;49.184;9.722;2022-09-03T05:14:06;18.30;55.90
8188;DHT22;4135;49.184;9.722;2022-09-03T05:16:40;18.30;56.00
8188;DHT22;4135;49.184;9.722;2022-09-03T05:19:09;18.30;55.90
8188;DHT22;4135;49.184;9.722;2022-09-03T05:21:39;18.30;55.90
8188;DHT22;4135;49.184;9.722;2022-09-03T05:24:08;18.40;56.00
8188;DHT22;4135;49.184;9.722;2022-09-03T05:26:39;18.30;56.00
8188;DHT22;4135;49.184;9.722;2022-09-03T05:29:09;18.30;56.00
8188;DHT22;4135;49.184;9.722;2022-09-03T05:31:39;18.30;56.10
8188;DHT22;4135;49.184;9.722;2022-09-03T05:34:09;18.30;56.20
8188;DHT22;4135;49.184;9.722;2022-09-03T05:36:38;18.30;56.20
8188;DHT22;4135;49.184;9.722;2022-09-03T05:39:08;18.30;56.20
8188;DHT22;4135;49.184;9.722;2022-09-03T05:41:37;18.30;56.30
8188;DHT22;4135;49.184;9.722;2022-09-03T05:44:07;18.30;56.30
8188;DHT22;4135;49.184;9.722;2022-09-03T05:46:36;18.30;57.00
8188;DHT22;4135;49.184;9.722;2022-09-03T05:49:07;18.30;56.40
8188;DHT22;4135;49.184;9.722;2022-09-03T05:51:37;18.30;56.50
8188;DHT22;4135;49.184;9.722;2022-09-03T05:54:09;18.30;56.60
8188;DHT22;4135;49.184;9.722;2022-09-03T05:56:39;18.30;56.60
8188;DHT22;4135;49.184;9.722;2022-09-03T05:59:11;18.40;56.70
8188;DHT22;4135;49.184;9.722;2022-09-03T06:01:43;18.30;56.70
8188;DHT22;4135;49.184;9.722;2022-09-03T06:04:14;18.30;56.70
8188;DHT22;4135;49.184;9.722;2022-09-03T06:06:46;18.30;56.80
8188;DHT22;4135;49.184;9.722;2022-09-03T06:09:20;18.30;56.90
8188;DHT22;4135;49.184;9.722;2022-09-03T06:11:50;18.30;56.90
8188;DHT22;4135;49.184;9.722;2022-09-03T06:14:22;18.30;57.00
8188;DHT22;4135;49.184;9.722;2022-09-03T06:16:51;18.30;57.00
8188;DHT22;4135;49.184;9.722;2022-09-03T06:19:21;18.30;57.10
8188;DHT22;4135;49.184;9.722;2022-09-03T06:21:51;18.30;57.00
8188;DHT22;4135;49.184;9.722;2022-09-03T06:24:21;18.30;57.00
8188;DHT22;4135;49.184;9.722;2022-09-03T06:26:51;18.40;57.10
8188;DHT22;4135;49.184;9.722;2022-09-03T06:29:21;18.40;57.10
8188;DHT22;4135;49.184;9.722;2022-09-03T06:31:50;18.40;57.10
8188;DHT22;4135;49.184;9.722;2022-09-03T06:34:20;18.40;57.10
8188;DHT22;4135;49.184;9.722;2022-09-03T06:36:50;18.50;57.20
8188;DHT22;4135;49.184;9.722;2022-09-03T06:39:21;18.50;57.20
8188;DHT22;4135;49.184;9.722;2022-09-03T06:41:50;18.50;57.20
8188;DHT22;4135;49.184;9.722;2022-09-03T06:44:20;18.50;57.30
8188;DHT22;4135;49.184;9.722;2022-09-03T06:46:49;18.50;57.50
8188;DHT22;4135;49.184;9.722;2022-09-03T06:49:21;18.50;57.50
8188;DHT22;4135;49.184;9.722;2022-09-03T06:51:54;18.50;57.50
8188;DHT22;4135;49.184;9.722;2022-09-03T06:54:24;18.50;57.70
8188;DHT22;4135;49.184;9.722;2022-09-03T06:56:53;18.50;57.70
8188;DHT22;4135;49.184;9.722;2022-09-03T06:59:22;18.50;57.70
8188;DHT22;4135;49.184;9.722;2022-09-03T07:01:52;18.60;57.70
8188;DHT22;4135;49.184;9.722;2022-09-03T07:04:21;18.60;58.00
8188;DHT22;4135;49.184;9.722;2022-09-03T07:06:53;18.60;57.90
8188;DHT22;4135;49.184;9.722;2022-09-03T07:09:22;18.60;57.80
8188;DHT22;4135;49.184;9.722;2022-09-03T07:11:52;18.70;58.20
8188;DHT22;4135;49.184;9.722;2022-09-03T07:14:21;18.70;58.10
8188;DHT22;4135;49.184;9.722;2022-09-03T07:16:51;18.70;58.30
8188;DHT22;4135;49.184;9.722;2022-09-03T07:19:20;18.70;58.30
8188;DHT22;4135;49.184;9.722;2022-09-03T07:21:50;18.70;58.40
8188;DHT22;4135;49.184;9.722;2022-09-03T07:24:19;18.70;58.30
8188;DHT22;4135;49.184;9.722;2022-09-03T07:26:50;18.70;58.50
8188;DHT22;4135;49.184;9.722;2022-09-03T07:29:19;18.70;58.60
8188;DHT22;4135;49.184;9.722;2022-09-03T07:31:50;18.80;58.60
8188;DHT22;4135;49.184;9.722;2022-09-03T07:34:20;18.80;58.60
8188;DHT22;4135;49.184;9.722;2022-09-03T07:36:52;18.80;58.70
8188;DHT22;4135;49.184;9.722;2022-09-03T07:39:22;18.80;58.50
8188;DHT22;4135;49.184;9.722;2022-09-03T07:41:51;18.90;58.60
8188;DHT22;4135;49.184;9.722;2022-09-03T07:44:21;18.90;58.80
8188;DHT22;4135;49.184;9.722;2022-09-03T07:46:52;18.90;58.90
8188;DHT22;4135;49.184;9.722;2022-09-03T07:49:22;18.90;58.80
8188;DHT22;4135;49.184;9.722;2022-09-03T07:51:51;18.90;58.80
8188;DHT22;4135;49.184;9.722;2022-09-03T07:54:22;19.00;58.90
8188;DHT22;4135;49.184;9.722;2022-09-03T07:56:54;19.00;58.80
8188;DHT22;4135;49.184;9.722;2022-09-03T07:59:24;19.10;58.70
8188;DHT22;4135;49.184;9.722;2022-09-03T08:01:54;19.10;58.60
8188;DHT22;4135;49.184;9.722;2022-09-03T08:04:23;19.10;58.80
8188;DHT22;4135;49.184;9.722;2022-09-03T08:06:53;19.20;58.80
8188;DHT22;4135;49.184;9.722;2022-09-03T08:09:25;19.20;58.70
8188;DHT22;4135;49.184;9.722;2022-09-03T08:11:54;19.20;58.70
8188;DHT22;4135;49.184;9.722;2022-09-03T08:14:24;19.20;59.10
8188;DHT22;4135;49.184;9.722;2022-09-03T08:16:53;19.20;59.20
8188;DHT22;4135;49.184;9.722;2022-09-03T08:19:24;19.30;59.10
8188;DHT22;4135;49.184;9.722;2022-09-03T08:21:54;19.30;59.20
8188;DHT22;4135;49.184;9.722;2022-09-03T08:24:23;19.30;59.20
8188;DHT22;4135;49.184;9.722;2022-09-03T08:26:54;19.30;59.60
8188;DHT22;4135;49.184;9.722;2022-09-03T08:29:24;19.30;59.30
8188;DHT22;4135;49.184;9.722;2022-09-03T08:31:54;19.30;59.40
8188;DHT22;4135;49.184;9.722;2022-09-03T08:34:23;19.40;59.40
8188;DHT22;4135;49.184;9.722;2022-09-03T08:36:53;19.40;59.30
8188;DHT22;4135;49.184;9.722;2022-09-03T08:39:22;19.40;59.40
8188;DHT22;4135;49.184;9.722;2022-09-03T08:44:28;19.50;59.80
8188;DHT22;4135;49.184;9.722;2022-09-03T08:49:56;19.50;59.60
8188;DHT22;4135;49.184;9.722;2022-09-03T08:52:54;19.60;60.00
8188;DHT22;4135;49.184;9.722;2022-09-03T08:58:18;19.60;60.10
8188;DHT22;4135;49.184;9.722;2022-09-03T09:00:53;19.60;60.00
8188;DHT22;4135;49.184;9.722;2022-09-03T09:09:34;19.80;60.60
8188;DHT22;4135;49.184;9.722;2022-09-03T09:12:47;19.80;60.50
8188;DHT22;4135;49.184;9.722;2022-09-03T09:20:50;19.80;60.50
8188;DHT22;4135;49.184;9.722;2022-09-03T09:23:43;19.80;61.10
8188;DHT22;4135;49.184;9.722;2022-09-03T09:26:16;19.90;61.20
8188;DHT22;4135;49.184;9.722;2022-09-03T09:28:52;19.90;61.90
8188;DHT22;4135;49.184;9.722;2022-09-03T09:31:23;20.00;61.20
8188;DHT22;4135;49.184;9.722;2022-09-03T09:33:53;20.00;61.00
8188;DHT22;4135;49.184;9.722;2022-09-03T09:36:22;20.00;61.00
8188;DHT22;4135;49.184;9.722;2022-09-03T09:38:53;20.10;61.00
8188;DHT22;4135;49.184;9.722;2022-09-03T09:41:22;20.10;61.00
8188;DHT22;4135;49.184;9.722;2022-09-03T09:44:00;20.10;61.00
8188;DHT22;4135;49.184;9.722;2022-09-03T09:46:36;20.10;61.40
8188;DHT22;4135;49.184;9.722;2022-09-03T09:49:30;20.20;63.40
8188;DHT22;4135;49.184;9.722;2022-09-03T09:52:14;20.30;64.50
8188;DHT22;4135;49.184;9.722;2022-09-03T09:54:45;20.30;63.20
8188;DHT22;4135;49.184;9.722;2022-09-03T09:57:22;20.40;63.00
8188;DHT22;4135;49.184;9.722;2022-09-03T10:00:13;20.40;62.80
8188;DHT22;4135;49.184;9.722;2022-09-03T10:02:48;20.50;62.80
8188;DHT22;4135;49.184;9.722;2022-09-03T10:05:27;20.50;62.60
8188;DHT22;4135;49.184;9.722;2022-09-03T10:08:00;20.50;62.50
8188;DHT22;4135;49.184;9.722;2022-09-03T10:10:33;20.50;63.20
8188;DHT22;4135;49.184;9.722;2022-09-03T10:13:12;20.50;63.00
8188;DHT22;4135;49.184;9.722;2022-09-03T10:16:00;20.50;62.60
8188;DHT22;4135;49.184;9.722;2022-09-03T10:18:43;20.60;63.00
8188;DHT22;4135;49.184;9.722;2022-09-03T10:26:45;20.60;63.40
8188;DHT22;4135;49.184;9.722;2022-09-03T10:29:19;20.60;63.40
8188;DHT22;4135;49.184;9.722;2022-09-03T10:37:33;20.70;63.70
8188;DHT22;4135;49.184;9.722;2022-09-03T10:40:16;20.70;63.50
8188;DHT22;4135;49.184;9.722;2022-09-03T10:43:13;20.70;63.90
8188;DHT22;4135;49.184;9.722;2022-09-03T10:46:02;20.80;64.10
8188;DHT22;4135;49.184;9.722;2022-09-03T10:51:59;20.80;64.60
8188;DHT22;4135;49.184;9.722;2022-09-03T10:54:43;20.90;64.90
8188;DHT22;4135;49.184;9.722;2022-09-03T11:00:14;20.90;65.60
8188;DHT22;4135;49.184;9.722;2022-09-03T11:05:59;21.00;65.40
8188;DHT22;4135;49.184;9.722;2022-09-03T11:11:35;21.00;64.90
8188;DHT22;4135;49.184;9.722;2022-09-03T11:14:08;21.00;65.20
8188;DHT22;4135;49.184;9.722;2022-09-03T11:16:48;21.10;65.10
8188;DHT22;4135;49.184;9.722;2022-09-03T11:22:24;21.10;64.90
8188;DHT22;4135;49.184;9.722;2022-09-03T11:24:58;21.10;65.20
8188;DHT22;4135;49.184;9.722;2022-09-03T11:30:13;21.20;64.80
8188;DHT22;4135;49.184;9.722;2022-09-03T11:32:59;21.20;65.00
8188;DHT22;4135;49.184;9.722;2022-09-03T11:38:07;21.30;64.90
8188;DHT22;4135;49.184;9.722;2022-09-03T11:40:59;21.30;64.70
8188;DHT22;4135;49.184;9.722;2022-09-03T11:43:33;21.30;64.90
8188;DHT22;4135;49.184;9.722;2022-09-03T11:46:26;21.40;64.70
8188;DHT22;4135;49.184;9.722;2022-09-03T11:49:09;21.30;64.20
8188;DHT22;4135;49.184;9.722;2022-09-03T11:51:40;21.40;64.00
8188;DHT22;4135;49.184;9.722;2022-09-03T11:56:41;21.40;64.00
8188;DHT22;4135;49.184;9.722;2022-09-03T11:59:23;21.50;64.30
8188;DHT22;4135;49.184;9.722;2022-09-03T12:02:33;21.50;64.30
8188;DHT22;4135;49.184;9.722;2022-09-03T12:05:13;21.50;64.20
8188;DHT22;4135;49.184;9.722;2022-09-03T12:13:17;21.70;63.50
8188;DHT22;4135;49.184;9.722;2022-09-03T12:16:18;21.60;63.50
8188;DHT22;4135;49.184;9.722;2022-09-03T12:18:50;21.70;63.40
8188;DHT22;4135;49.184;9.722;2022-09-03T12:21:24;21.70;63.40
8188;DHT22;4135;49.184;9.722;2022-09-03T12:23:54;21.70;63.20
8188;DHT22;4135;49.184;9.722;2022-09-03T12:26:25;21.70;63.20
8188;DHT22;4135;49.184;9.722;2022-09-03T12:28:57;21.70;63.00
8188;DHT22;4135;49.184;9.722;2022-09-03T12:31:29;21.70;62.90
8188;DHT22;4135;49.184;9.722;2022-09-03T12:34:02;21.70;63.10
8188;DHT22;4135;49.184;9.722;2022-09-03T12:36:37;21.70;63.10
8188;DHT22;4135;49.184;9.722;2022-09-03T12:39:14;21.70;63.00
8188;DHT22;4135;49.184;9.722;2022-09-03T12:44:25;21.70;63.30
8188;DHT22;4135;49.184;9.722;2022-09-03T12:49:39;21.80;63.90
8188;DHT22;4135;49.184;9.722;2022-09-03T13:00:36;21.80;63.60
8188;DHT22;4135;49.184;9.722;2022-09-03T13:03:18;21.80;63.60
8188;DHT22;4135;49.184;9.722;2022-09-03T13:05:54;21.80;63.30
8188;DHT22;4135;49.184;9.722;2022-09-03T13:08:30;21.80;63.30
8188;DHT22;4135;49.184;9.722;2022-09-03T13:11:02;21.80;63.50
8188;DHT22;4135;49.184;9.722;2022-09-03T13:13:35;21.80;63.60
8188;DHT22;4135;49.184;9.722;2022-09-03T13:24:45;21.80;63.40
8188;DHT22;4135;49.184;9.722;2022-09-03T13:30:10;21.80;63.10
8188;DHT22;4135;49.184;9.722;2022-09-03T13:33:14;21.80;63.20
8188;DHT22;4135;49.184;9.722;2022-09-03T13:35:52;21.80;63.30
8188;DHT22;4135;49.184;9.722;2022-09-03T13:38:34;21.80;63.40
8188;DHT22;4135;49.184;9.722;2022-09-03T13:41:16;21.80;63.70
8188;DHT22;4135;49.184;9.722;2022-09-03T13:44:00;21.80;63.40
8188;DHT22;4135;49.184;9.722;2022-09-03T13:46:53;21.80;63.60
8188;DHT22;4135;49.184;9.722;2022-09-03T13:49:47;21.80;63.60
8188;DHT22;4135;49.184;9.722;2022-09-03T13:52:47;21.80;63.60
8188;DHT22;4135;49.184;9.722;2022-09-03T13:57:58;21.80;63.80
8188;DHT22;4135;49.184;9.722;2022-09-03T14:06:39;21.90;63.60
8188;DHT22;4135;49.184;9.722;2022-09-03T14:09:29;21.90;63.60
8188;DHT22;4135;49.184;9.722;2022-09-03T14:12:17;21.90;64.00
8188;DHT22;4135;49.184;9.722;2022-09-03T14:14:55;22.00;64.20
8188;DHT22;4135;49.184;9.722;2022-09-03T14:20:07;22.00;63.90
8188;DHT22;4135;49.184;9.722;2022-09-03T14:25:27;22.00;63.70
8188;DHT22;4135;49.184;9.722;2022-09-03T14:30:54;22.10;63.80
8188;DHT22;4135;49.184;9.722;2022-09-03T14:33:54;22.10;64.60
8188;DHT22;4135;49.184;9.722;2022-09-03T14:40:28;22.10;64.00
8188;DHT22;4135;49.184;9.722;2022-09-03T14:45:59;22.10;63.80
8188;DHT22;4135;49.184;9.722;2022-09-03T14:54:10;22.10;63.50
8188;DHT22;4135;49.184;9.722;2022-09-03T15:00:01;22.20;63.60
8188;DHT22;4135;49.184;9.722;2022-09-03T15:02:41;22.20;63.50
8188;DHT22;4135;49.184;9.722;2022-09-03T15:10:59;22.20;63.90
8188;DHT22;4135;49.184;9.722;2022-09-03T15:14:09;22.20;63.60
8188;DHT22;4135;49.184;9.722;2022-09-03T15:26:09;22.20;64.00
8188;DHT22;4135;49.184;9.722;2022-09-03T15:31:20;22.30;65.40
8188;DHT22;4135;49.184;9.722;2022-09-03T15:34:06;22.20;65.50
8188;DHT22;4135;49.184;9.722;2022-09-03T15:36:43;22.20;66.50
8188;DHT22;4135;49.184;9.722;2022-09-03T15:39:23;22.20;67.20
8188;DHT22;4135;49.184;9.722;2022-09-03T15:42:05;22.20;67.30
8188;DHT22;4135;49.184;9.722;2022-09-03T15:44:48;22.20;67.50
8188;DHT22;4135;49.184;9.722;2022-09-03T15:50:36;22.20;67.70
8188;DHT22;4135;49.184;9.722;2022-09-03T16:01:19;22.10;68.30
8188;DHT22;4135;49.184;9.722;2022-09-03T16:06:35;22.10;68.40
8188;DHT22;4135;49.184;9.722;2022-09-03T16:12:33;22.10;69.50
8188;DHT22;4135;49.184;9.722;2022-09-03T16:15:23;22.00;70.90
8188;DHT22;4135;49.184;9.722;2022-09-03T16:20:43;22.00;73.10
8188;DHT22;4135;49.184;9.722;2022-09-03T16:28:51;22.10;74.90
8188;DHT22;4135;49.184;9.722;2022-09-03T16:37:07;22.00;75.40
8188;DHT22;4135;49.184;9.722;2022-09-03T16:39:46;22.00;76.40
8188;DHT22;4135;49.184;9.722;2022-09-03T16:45:49;22.00;76.70
8188;DHT22;4135;49.184;9.722;2022-09-03T16:48:46;22.00;76.10
8188;DHT22;4135;49.184;9.722;2022-09-03T16:58:04;21.90;76.40
8188;DHT22;4135;49.184;9.722;2022-09-03T17:06:12;21.90;76.10
8188;DHT22;4135;49.184;9.722;2022-09-03T17:08:57;22.00;76.10
8188;DHT22;4135;49.184;9.722;2022-09-03T17:11:40;21.90;75.40
8188;DHT22;4135;49.184;9.722;2022-09-03T17:14:26;22.00;75.30
8188;DHT22;4135;49.184;9.722;2022-09-03T17:20:17;22.00;75.70
8188;DHT22;4135;49.184;9.722;2022-09-03T17:28:52;21.90;75.90
8188;DHT22;4135;49.184;9.722;2022-09-03T17:37:33;21.90;78.60
8188;DHT22;4135;49.184;9.722;2022-09-03T17:48:54;21.90;80.20
8188;DHT22;4135;49.184;9.722;2022-09-03T17:51:38;21.80;81.80
8188;DHT22;4135;49.184;9.722;2022-09-03T17:57:14;21.80;82.20
8188;DHT22;4135;49.184;9.722;2022-09-03T18:02:49;21.80;80.00
8188;DHT22;4135;49.184;9.722;2022-09-03T18:05:47;21.80;78.70
8188;DHT22;4135;49.184;9.722;2022-09-03T18:08:50;21.90;78.50
8188;DHT22;4135;49.184;9.722;2022-09-03T18:11:28;21.90;79.10
8188;DHT22;4135;49.184;9.722;2022-09-03T18:14:23;21.90;78.50
8188;DHT22;4135;49.184;9.722;2022-09-03T18:17:12;21.90;78.80
8188;DHT22;4135;49.184;9.722;2022-09-03T18:20:05;21.90;78.80
8188;DHT22;4135;49.184;9.722;2022-09-03T18:23:25;21.90;78.90
8188;DHT22;4135;49.184;9.722;2022-09-03T18:26:21;21.80;78.20
8188;DHT22;4135;49.184;9.722;2022-09-03T18:32:18;21.80;77.10
8188;DHT22;4135;49.184;9.722;2022-09-03T18:35:07;21.90;76.80
8188;DHT22;4135;49.184;9.722;2022-09-03T18:37:56;21.80;77.30
8188;DHT22;4135;49.184;9.722;2022-09-03T18:47:40;21.70;78.80
8188;DHT22;4135;49.184;9.722;2022-09-03T18:50:45;21.80;79.20
8188;DHT22;4135;49.184;9.722;2022-09-03T18:53:47;21.70;78.90
8188;DHT22;4135;49.184;9.722;2022-09-03T18:56:46;21.70;78.60
8188;DHT22;4135;49.184;9.722;2022-09-03T19:05:57;21.70;78.40
8188;DHT22;4135;49.184;9.722;2022-09-03T19:12:15;21.70;77.60
8188;DHT22;4135;49.184;9.722;2022-09-03T19:15:10;21.80;78.10
8188;DHT22;4135;49.184;9.722;2022-09-03T19:21:30;21.70;78.10
8188;DHT22;4135;49.184;9.722;2022-09-03T19:24:26;21.70;78.50
8188;DHT22;4135;49.184;9.722;2022-09-03T19:27:28;21.70;78.00
8188;DHT22;4135;49.184;9.722;2022-09-03T19:33:49;21.70;78.00
8188;DHT22;4135;49.184;9.722;2022-09-03T19:52:30;21.70;77.70
8188;DHT22;4135;49.184;9.722;2022-09-03T19:55:25;21.70;77.70
8188;DHT22;4135;49.184;9.722;2022-09-03T19:58:18;21.70;78.50
8188;DHT22;4135;49.184;9.722;2022-09-03T20:01:08;21.70;79.20
8188;DHT22;4135;49.184;9.722;2022-09-03T20:03:59;21.60;79.70
8188;DHT22;4135;49.184;9.722;2022-09-03T20:06:51;21.60;80.30
8188;DHT22;4135;49.184;9.722;2022-09-03T20:09:41;21.60;80.40
8188;DHT22;4135;49.184;9.722;2022-09-03T20:12:34;21.60;80.60
8188;DHT22;4135;49.184;9.722;2022-09-03T20:15:06;21.60;80.50
8188;DHT22;4135;49.184;9.722;2022-09-03T20:18:00;21.60;81.50
8188;DHT22;4135;49.184;9.722;2022-09-03T20:21:09;21.60;81.70
8188;DHT22;4135;49.184;9.722;2022-09-03T20:32:59;21.50;83.90
8188;DHT22;4135;49.184;9.722;2022-09-03T20:38:25;21.50;84.60
8188;DHT22;4135;49.184;9.722;2022-09-03T20:44:02;21.50;85.90
8188;DHT22;4135;49.184;9.722;2022-09-03T20:47:03;21.50;86.20
8188;DHT22;4135;49.184;9.722;2022-09-03T20:49:56;21.50;85.50
8188;DHT22;4135;49.184;9.722;2022-09-03T20:55:35;21.50;85.20
8188;DHT22;4135;49.184;9.722;2022-09-03T21:01:03;21.50;84.80
8188;DHT22;4135;49.184;9.722;2022-09-03T21:11:41;21.40;84.80
8188;DHT22;4135;49.184;9.722;2022-09-03T21:14:26;21.50;84.80
8188;DHT22;4135;49.184;9.722;2022-09-03T21:22:39;21.50;83.60
8188;DHT22;4135;49.184;9.722;2022-09-03T21:25:20;21.50;83.50
8188;DHT22;4135;49.184;9.722;2022-09-03T21:28:11;21.40;84.30
8188;DHT22;4135;49.184;9.722;2022-09-03T21:30:46;21.40;84.80
8188;DHT22;4135;49.184;9.722;2022-09-03T21:33:30;21.30;85.00
8188;DHT22;4135;49.184;9.722;2022-09-03T21:36:32;21.30;85.70
8188;DHT22;4135;49.184;9.722;2022-09-03T21:39:18;21.30;86.30
8188;DHT22;4135;49.184;9.722;2022-09-03T21:41:57;21.20;85.80
8188;DHT22;4135;49.184;9.722;2022-09-03T21:47:10;21.20;87.00
8188;DHT22;4135;49.184;9.722;2022-09-03T21:52:32;21.20;86.70
8188;DHT22;4135;49.184;9.722;2022-09-03T21:55:20;21.20;86.90
8188;DHT22;4135;49.184;9.722;2022-09-03T22:00:28;21.00;87.60
8188;DHT22;4135;49.184;9.722;2022-09-03T22:03:07;21.10;87.80
8188;DHT22;4135;49.184;9.722;2022-09-03T22:05:49;21.00;88.30
8188;DHT22;4135;49.184;9.722;2022-09-03T22:11:06;21.00;88.50
8188;DHT22;4135;49.184;9.722;2022-09-03T22:13:54;21.00;88.60
8188;DHT22;4135;49.184;9.722;2022-09-03T22:16:36;21.00;88.50
8188;DHT22;4135;49.184;9.722;2022-09-03T22:19:07;21.00;87.90
8188;DHT22;4135;49.184;9.722;2022-09-03T22:24:16;21.00;88.40
8188;DHT22;4135;49.184;9.722;2022-09-03T22:27:23;21.00;88.10
8188;DHT22;4135;49.184;9.722;2022-09-03T22:30:13;20.90;88.00
8188;DHT22;4135;49.184;9.722;2022-09-03T22:47:06;20.90;87.80
8188;DHT22;4135;49.184;9.722;2022-09-03T22:49:53;20.80;88.00
8188;DHT22;4135;49.184;9.722;2022-09-03T22:52:41;20.80;88.60
8188;DHT22;4135;49.184;9.722;2022-09-03T22:55:20;20.80;89.10
8188;DHT22;4135;49.184;9.722;2022-09-03T22:58:16;20.80;88.50
8188;DHT22;4135;49.184;9.722;2022-09-03T23:00:53;20.80;88.90
8188;DHT22;4135;49.184;9.722;2022-09-03T23:03:36;20.70;89.10
8188;DHT22;4135;49.184;9.722;2022-09-03T23:06:30;20.70;89.20